ADDS METAR Data INFO
IDs: Format: Raw Decoded Include TAF

Data at: 2346 UTC 15 Dec 2017

KILM 152253Z AUTO 22005KT 10SM CLR 12/06 A2994 RMK AO2 SLP138 T01220056
KILM 152153Z AUTO 24005KT 10SM CLR 13/06 A2992 RMK AO2 SLP133 T01330056
KILM 152053Z AUTO 25007KT 10SM CLR 15/04 A2991 RMK AO2 SLP129 T01500044
KILM 151953Z AUTO 26012KT 10SM CLR 16/04 A2991 RMK AO2 SLP128 T01560039
KILM 151853Z AUTO 24008KT 10SM CLR 16/04 A2991 RMK AO2 SLP126 T01560044
KILM 151753Z AUTO 24008KT 8SM CLR 14/04 A2992 RMK AO2 SLP132 T01440044 10150 20022 58028
KILM 151653Z AUTO 22008KT 5SM HZ CLR 13/04 A2996 RMK AO2 SLP145 T01280039
KILM 151553Z AUTO 21003KT 10SM CLR 11/05 A2999 RMK AO2 SLP154 T01110050
KILM 151453Z AUTO 00000KT 10SM CLR 09/06 A3001 RMK AO2 SLP160 T00890061 53005
KILM 151353Z AUTO 00000KT 9SM CLR 06/04 A2999 RMK AO2 SLP154 T00560044
KILM 151253Z AUTO 00000KT 7SM CLR 03/02 A2998 RMK AO2 SLP153 T00280022
KILM 151153Z AUTO 00000KT 9SM CLR 03/02 A2999 RMK AO2 SLP155 T00330022 10044 20033 56000
KILM 151053Z AUTO 00000KT 10SM CLR 04/03 A2999 RMK AO2 SLP156 T00390028
KILM 150953Z AUTO 06003KT 10SM CLR 04/03 A2999 RMK AO2 SLP154 T00440033
KILM 150853Z AUTO 00000KT 9SM CLR 03/03 A2999 RMK AO2 SLP155 T00330028 55000
KILM 150753Z AUTO 04004KT 10SM CLR 04/03 A2999 RMK AO2 SLP156 T00390033
KILM 150653Z AUTO 05003KT 10SM CLR 03/03 A2999 RMK AO2 SLP154 T00330028
KILM 150553Z AUTO 00000KT 9SM CLR 04/03 A2999 RMK AO2 SLP156 T00390028 10094 20033 58001
KILM 150453Z AUTO 00000KT 9SM CLR 04/03 A3000 RMK AO2 SLP158 T00440028 401720033
KILM 150353Z AUTO 00000KT 9SM CLR 04/02 A3000 RMK AO2 SLP158 T00390022
KILM 150253Z 00000KT 8SM CLR 04/03 A2999 RMK AO2 SLP156 T00390028 50009
KILM 150153Z 00000KT 10SM CLR 05/03 A3000 RMK AO2 SLP158 T00500028
KILM 150053Z 00000KT 10SM CLR 06/03 A2998 RMK AO2 SLP151 T00610033
KILM 142353Z 00000KT 10SM CLR 09/03 A2997 RMK AO2 SLP147 T00940033 10172 20078 53029
KILM 142253Z 22004KT 10SM CLR 10/03 A2994 RMK AO2 SLP138 T01000028
KILM 142153Z 00000KT 10SM CLR 12/00 A2990 RMK AO2 SLP124 T01170000
KILM 142053Z 28008KT 10SM CLR 15/M01 A2988 RMK AO2 SLP118 T01501011 53006
KILM 141953Z 29009KT 10SM CLR 17/M02 A2986 RMK AO2 SLP111 T01671017
KILM 141853Z 28006KT 10SM CLR 16/M02 A2986 RMK AO2 SLP112 T01611017
KILM 141753Z 27008KT 10SM CLR 16/M01 A2986 RMK AO2 SLP112 T01561011 10156 20050 58009
KILM 141653Z 25008KT 10SM CLR 13/M01 A2988 RMK AO2 SLP118 T01331011
KILM 141553Z 28009KT 10SM CLR 12/M02 A2989 RMK AO2 SLP121 T01171017
KILM 141453Z 26011KT 10SM CLR 10/M02 A2989 RMK AO2 SLP121 T01001022 52018
KILM 141353Z 26012KT 10SM CLR 08/M03 A2987 RMK AO2 SLP115 T00781028
KILM 141253Z 25009KT 10SM CLR 06/M03 A2985 RMK AO2 SLP109 T00611028
KILM 141153Z 24009KT 10SM CLR 05/M03 A2984 RMK AO2 SLP103 T00501033 10078 20050 53016